sensor_id;sensor_type;location;lat;lon;timestamp;temperature;humidity
14775;DHT22;7479;47.042;15.160;2023-03-17T06:37:14;-0.20;96.40
14775;DHT22;7479;47.042;15.160;2023-03-17T07:50:53;2.00;91.00
14775;DHT22;7479;47.042;15.160;2023-03-17T09:16:29;6.60;66.50
14775;DHT22;7479;47.042;15.160;2023-03-17T09:21:25;6.80;64.80
14775;DHT22;7479;47.042;15.160;2023-03-17T09:26:19;7.00;64.80
14775;DHT22;7479;47.042;15.160;2023-03-17T09:31:22;7.40;65.20
14775;DHT22;7479;47.042;15.160;2023-03-17T09:36:18;7.80;63.40
14775;DHT22;7479;47.042;15.160;2023-03-17T09:41:37;7.90;64.20
14775;DHT22;7479;47.042;15.160;2023-03-17T09:46:44;8.10;61.50
14775;DHT22;7479;47.042;15.160;2023-03-17T09:51:44;8.20;58.40
14775;DHT22;7479;47.042;15.160;2023-03-17T09:56:42;8.50;55.80
14775;DHT22;7479;47.042;15.160;2023-03-17T10:01:40;8.70;56.40
14775;DHT22;7479;47.042;15.160;2023-03-17T10:06:37;9.10;54.70
14775;DHT22;7479;47.042;15.160;2023-03-17T10:11:40;9.40;53.90
14775;DHT22;7479;47.042;15.160;2023-03-17T10:16:41;9.60;53.00
14775;DHT22;7479;47.042;15.160;2023-03-17T10:21:47;9.90;54.30
14775;DHT22;7479;47.042;15.160;2023-03-17T10:26:49;10.00;52.70
14775;DHT22;7479;47.042;15.160;2023-03-17T10:31:45;10.10;51.80
14775;DHT22;7479;47.042;15.160;2023-03-17T10:36:42;10.00;51.20
14775;DHT22;7479;47.042;15.160;2023-03-17T10:41:52;10.10;51.00
14775;DHT22;7479;47.042;15.160;2023-03-17T10:46:54;10.40;50.60
14775;DHT22;7479;47.042;15.160;2023-03-17T10:51:53;10.80;50.60
14775;DHT22;7479;47.042;15.160;2023-03-17T10:56:49;10.90;51.90
14775;DHT22;7479;47.042;15.160;2023-03-17T11:01:53;11.20;51.00
14775;DHT22;7479;47.042;15.160;2023-03-17T11:06:50;11.60;50.50
14775;DHT22;7479;47.042;15.160;2023-03-17T11:11:46;12.10;49.30
14775;DHT22;7479;47.042;15.160;2023-03-17T11:16:50;12.40;48.90
14775;DHT22;7479;47.042;15.160;2023-03-17T11:21:54;12.50;46.90
14775;DHT22;7479;47.042;15.160;2023-03-17T11:26:58;12.70;44.00
14775;DHT22;7479;47.042;15.160;2023-03-17T11:31:59;13.10;42.80
14775;DHT22;7479;47.042;15.160;2023-03-17T11:37:01;13.20;43.60
14775;DHT22;7479;47.042;15.160;2023-03-17T11:42:04;13.30;44.10
14775;DHT22;7479;47.042;15.160;2023-03-17T11:47:09;13.70;43.00
14775;DHT22;7479;47.042;15.160;2023-03-17T11:52:15;13.70;42.60
14775;DHT22;7479;47.042;15.160;2023-03-17T11:57:18;14.10;42.30
14775;DHT22;7479;47.042;15.160;2023-03-17T12:02:19;14.40;41.50
14775;DHT22;7479;47.042;15.160;2023-03-17T12:07:20;14.40;40.10
14775;DHT22;7479;47.042;15.160;2023-03-17T12:12:18;14.80;41.20
14775;DHT22;7479;47.042;15.160;2023-03-17T12:17:19;15.40;40.30
14775;DHT22;7479;47.042;15.160;2023-03-17T12:22:24;15.80;39.20
14775;DHT22;7479;47.042;15.160;2023-03-17T12:27:23;15.90;38.80
14775;DHT22;7479;47.042;15.160;2023-03-17T12:32:22;16.30;38.70
14775;DHT22;7479;47.042;15.160;2023-03-17T12:37:18;16.30;37.70
14775;DHT22;7479;47.042;15.160;2023-03-17T12:42:24;16.10;37.20
14775;DHT22;7479;47.042;15.160;2023-03-17T12:47:32;16.30;39.20
14775;DHT22;7479;47.042;15.160;2023-03-17T12:53:02;16.90;39.40
14775;DHT22;7479;47.042;15.160;2023-03-17T12:58:04;17.20;38.60
14775;DHT22;7479;47.042;15.160;2023-03-17T13:03:18;17.60;37.90
14775;DHT22;7479;47.042;15.160;2023-03-17T13:08:19;17.20;38.90
14775;DHT22;7479;47.042;15.160;2023-03-17T13:13:35;17.50;37.40
14775;DHT22;7479;47.042;15.160;2023-03-17T13:18:51;17.40;36.60
14775;DHT22;7479;47.042;15.160;2023-03-17T13:23:59;17.70;35.90
14775;DHT22;7479;47.042;15.160;2023-03-17T13:29:25;18.10;35.00
14775;DHT22;7479;47.042;15.160;2023-03-17T13:34:20;18.20;34.80
14775;DHT22;7479;47.042;15.160;2023-03-17T13:50:07;18.70;34.20
14775;DHT22;7479;47.042;15.160;2023-03-17T13:55:33;18.90;33.00
14775;DHT22;7479;47.042;15.160;2023-03-17T14:00:28;19.80;32.30
14775;DHT22;7479;47.042;15.160;2023-03-17T14:05:28;20.30;32.70
14775;DHT22;7479;47.042;15.160;2023-03-17T14:10:25;21.00;31.90
14775;DHT22;7479;47.042;15.160;2023-03-17T14:15:23;22.60;30.10
14775;DHT22;7479;47.042;15.160;2023-03-17T14:20:21;23.60;29.60
14775;DHT22;7479;47.042;15.160;2023-03-17T14:25:18;24.40;28.90
14775;DHT22;7479;47.042;15.160;2023-03-17T14:30:17;23.90;28.10
14775;DHT22;7479;47.042;15.160;2023-03-17T14:35:12;22.90;28.20
14775;DHT22;7479;47.042;15.160;2023-03-17T14:40:20;23.40;28.00
14775;DHT22;7479;47.042;15.160;2023-03-17T14:45:20;23.00;27.50
14775;DHT22;7479;47.042;15.160;2023-03-17T14:50:18;22.20;28.10
14775;DHT22;7479;47.042;15.160;2023-03-17T14:55:17;21.50;28.20
14775;DHT22;7479;47.042;15.160;2023-03-17T15:00:29;21.40;28.10
14775;DHT22;7479;47.042;15.160;2023-03-17T15:05:29;20.80;28.80
14775;DHT22;7479;47.042;15.160;2023-03-17T15:10:39;20.20;28.70
14775;DHT22;7479;47.042;15.160;2023-03-17T15:15:34;20.10;29.50
14775;DHT22;7479;47.042;15.160;2023-03-17T15:20:29;19.80;29.10
14775;DHT22;7479;47.042;15.160;2023-03-17T15:25:33;19.40;30.00
14775;DHT22;7479;47.042;15.160;2023-03-17T15:30:29;18.90;30.40
14775;DHT22;7479;47.042;15.160;2023-03-17T15:35:38;18.70;31.00
14775;DHT22;7479;47.042;15.160;2023-03-17T15:40:31;18.30;32.10
14775;DHT22;7479;47.042;15.160;2023-03-17T15:45:27;18.00;31.50
14775;DHT22;7479;47.042;15.160;2023-03-17T15:50:23;17.60;32.10
14775;DHT22;7479;47.042;15.160;2023-03-17T15:55:21;17.70;32.50
14775;DHT22;7479;47.042;15.160;2023-03-17T16:00:17;17.80;32.60
14775;DHT22;7479;47.042;15.160;2023-03-17T16:05:17;17.80;32.00
14775;DHT22;7479;47.042;15.160;2023-03-17T16:10:16;17.10;32.30
14775;DHT22;7479;47.042;15.160;2023-03-17T16:15:13;16.00;33.50
14775;DHT22;7479;47.042;15.160;2023-03-17T16:20:21;15.30;35.00
14775;DHT22;7479;47.042;15.160;2023-03-17T16:25:22;14.80;35.70
14775;DHT22;7479;47.042;15.160;2023-03-17T16:30:18;14.30;38.20
14775;DHT22;7479;47.042;15.160;2023-03-17T16:35:14;14.00;40.40
14775;DHT22;7479;47.042;15.160;2023-03-17T16:40:19;13.60;41.40
14775;DHT22;7479;47.042;15.160;2023-03-17T16:45:17;13.20;42.40
14775;DHT22;7479;47.042;15.160;2023-03-17T16:50:18;12.80;44.00
14775;DHT22;7479;47.042;15.160;2023-03-17T16:55:12;12.50;45.20
14775;DHT22;7479;47.042;15.160;2023-03-17T17:00:13;12.00;46.10
14775;DHT22;7479;47.042;15.160;2023-03-17T17:05:13;11.50;47.40
14775;DHT22;7479;47.042;15.160;2023-03-17T17:10:07;11.20;48.80
14775;DHT22;7479;47.042;15.160;2023-03-17T17:15:02;11.00;49.80
14775;DHT22;7479;47.042;15.160;2023-03-17T17:19:57;10.90;50.20
14775;DHT22;7479;47.042;15.160;2023-03-17T17:24:53;10.70;50.60
14775;DHT22;7479;47.042;15.160;2023-03-17T17:29:46;10.40;52.10
14775;DHT22;7479;47.042;15.160;2023-03-17T17:34:40;10.10;52.70
14775;DHT22;7479;47.042;15.160;2023-03-17T17:39:35;9.90;54.90
14775;DHT22;7479;47.042;15.160;2023-03-17T17:44:28;9.80;55.20
14775;DHT22;7479;47.042;15.160;2023-03-17T17:49:22;9.70;55.40
14775;DHT22;7479;47.042;15.160;2023-03-17T17:54:16;9.40;56.40
14775;DHT22;7479;47.042;15.160;2023-03-17T17:59:11;9.10;57.00
